createdAt,value
2018-05-29T00:02:20.443Z,14.40
2018-05-29T00:04:48.102Z,14.50
2018-05-29T00:07:15.739Z,13.07
2018-05-29T00:09:43.358Z,14.07
2018-05-29T00:12:10.987Z,15.03
2018-05-29T00:14:38.603Z,14.17
2018-05-29T00:17:06.315Z,14.53
2018-05-29T00:19:33.927Z,13.27
2018-05-29T00:22:01.567Z,14.07
2018-05-29T00:24:29.178Z,13.90
2018-05-29T00:26:56.815Z,12.40
2018-05-29T00:29:24.426Z,13.17
2018-05-29T00:31:52.063Z,11.90
2018-05-29T00:34:19.682Z,11.60
2018-05-29T00:36:47.325Z,11.20
2018-05-29T00:39:14.941Z,11.40
2018-05-29T00:41:42.578Z,11.37
2018-05-29T00:44:10.190Z,12.47
2018-05-29T00:46:37.859Z,12.13
2018-05-29T00:49:05.510Z,10.97
2018-05-29T00:51:33.170Z,11.07
2018-05-29T00:54:00.835Z,11.63
2018-05-29T00:56:28.472Z,11.30
2018-05-29T00:58:56.162Z,10.97
2018-05-29T01:01:23.805Z,11.50
2018-05-29T01:03:51.423Z,10.40
2018-05-29T01:06:19.148Z,10.97
2018-05-29T01:08:46.767Z,10.03
2018-05-29T01:11:14.398Z,10.47
2018-05-29T01:13:42.011Z,10.10
2018-05-29T01:16:09.655Z,10.37
2018-05-29T01:18:37.278Z,10.33
2018-05-29T01:21:04.923Z,11.10
2018-05-29T01:23:32.558Z,10.90
2018-05-29T01:26:00.174Z,10.20
2018-05-29T01:28:27.803Z,8.77
2018-05-29T01:30:55.422Z,10.97
2018-05-29T01:33:23.059Z,10.80
2018-05-29T01:35:50.677Z,10.47
2018-05-29T01:38:18.314Z,10.80
2018-05-29T01:40:45.929Z,9.77
2018-05-29T01:43:13.567Z,11.33
2018-05-29T01:45:41.230Z,10.30
2018-05-29T01:48:08.866Z,10.63
2018-05-29T01:50:36.558Z,10.70
2018-05-29T01:53:04.227Z,11.13
2018-05-29T01:55:31.842Z,9.80
2018-05-29T01:57:59.488Z,10.23
2018-05-29T02:00:27.112Z,10.50
2018-05-29T02:02:54.749Z,10.07
2018-05-29T02:05:22.425Z,9.13
2018-05-29T02:07:50.095Z,9.83
2018-05-29T02:10:17.746Z,9.63
2018-05-29T02:12:45.379Z,10.53
2018-05-29T02:15:12.990Z,10.47
2018-05-29T02:17:40.734Z,10.60
2018-05-29T02:20:08.360Z,11.17
2018-05-29T02:22:36.008Z,10.90
2018-05-29T02:25:03.628Z,11.10
2018-05-29T02:27:31.270Z,11.43
2018-05-29T02:29:58.886Z,12.20
2018-05-29T02:32:26.534Z,11.70
2018-05-29T02:34:54.169Z,12.10
2018-05-29T02:37:21.832Z,12.20
2018-05-29T02:39:49.476Z,11.63
2018-05-29T02:42:17.104Z,11.80
2018-05-29T02:44:44.747Z,11.30
2018-05-29T02:47:12.359Z,11.50
2018-05-29T02:49:40.038Z,12.30
2018-05-29T02:52:07.651Z,11.67
2018-05-29T02:54:35.367Z,11.90
2018-05-29T02:57:02.987Z,12.13
2018-05-29T02:59:30.700Z,11.97
2018-05-29T03:01:58.454Z,12.20
2018-05-29T03:04:26.092Z,12.10
2018-05-29T03:06:53.708Z,11.87
2018-05-29T03:09:21.349Z,12.67
2018-05-29T03:11:48.998Z,11.53
2018-05-29T03:14:16.668Z,11.37
2018-05-29T03:16:44.278Z,12.83
2018-05-29T03:19:11.992Z,11.40
2018-05-29T03:21:39.601Z,11.60
2018-05-29T03:24:07.320Z,12.43
2018-05-29T03:26:34.994Z,12.87
2018-05-29T03:29:02.659Z,11.43
2018-05-29T03:31:30.303Z,12.70
2018-05-29T03:33:57.934Z,11.67
2018-05-29T03:36:25.556Z,13.37
2018-05-29T03:38:53.199Z,13.50
2018-05-29T03:41:20.851Z,12.00
2018-05-29T03:43:48.516Z,11.60
2018-05-29T03:46:16.129Z,11.40
2018-05-29T03:48:43.789Z,10.93
2018-05-29T03:51:11.494Z,11.17
2018-05-29T03:53:39.115Z,11.53
2018-05-29T03:56:06.824Z,10.60
2018-05-29T03:58:34.447Z,10.70
2018-05-29T04:01:03.791Z,10.47
2018-05-29T04:03:31.402Z,10.57
2018-05-29T04:05:59.033Z,10.20
2018-05-29T04:08:26.644Z,11.80
2018-05-29T04:10:54.700Z,11.07
2018-05-29T04:13:22.325Z,10.13
2018-05-29T04:15:49.996Z,10.53
2018-05-29T04:18:17.631Z,10.60
2018-05-29T04:20:45.266Z,9.43
2018-05-29T04:23:12.887Z,10.50
2018-05-29T04:25:40.606Z,9.03
2018-05-29T04:28:08.268Z,9.77
2018-05-29T04:30:35.917Z,9.20
2018-05-29T04:33:03.539Z,10.07
2018-05-29T04:35:31.255Z,10.93
2018-05-29T04:37:58.923Z,9.10
2018-05-29T04:40:26.559Z,10.10
2018-05-29T04:42:54.179Z,10.17
2018-05-29T04:45:21.906Z,11.00
2018-05-29T04:47:49.579Z,9.03
2018-05-29T04:50:17.214Z,9.67
2018-05-29T04:52:44.894Z,10.47
2018-05-29T04:55:12.559Z,10.20
2018-05-29T04:57:40.171Z,10.87
2018-05-29T05:00:07.817Z,10.70
2018-05-29T05:02:35.565Z,10.00
2018-05-29T05:05:03.206Z,9.00
2018-05-29T05:07:30.869Z,10.17
2018-05-29T05:09:58.478Z,10.07
2018-05-29T05:12:26.120Z,10.20
2018-05-29T05:14:53.754Z,10.03
2018-05-29T05:17:21.390Z,10.57
2018-05-29T05:19:49.002Z,10.50
2018-05-29T05:22:16.643Z,10.20
2018-05-29T05:24:44.265Z,9.80
2018-05-29T05:27:11.968Z,10.90
2018-05-29T05:29:39.583Z,11.53
2018-05-29T05:32:07.223Z,11.27
2018-05-29T05:34:34.850Z,10.27
2018-05-29T05:37:02.481Z,9.43
2018-05-29T05:39:30.101Z,10.77
2018-05-29T05:41:57.734Z,10.90
2018-05-29T05:44:25.386Z,10.07
2018-05-29T05:46:53.053Z,10.83
2018-05-29T05:49:21.452Z,10.30
2018-05-29T05:51:49.215Z,11.20
2018-05-29T05:54:16.836Z,10.13
2018-05-29T05:56:44.531Z,10.57
2018-05-29T05:59:12.142Z,10.57
2018-05-29T06:01:39.770Z,10.13
2018-05-29T06:04:07.416Z,13.23
2018-05-29T06:06:35.079Z,9.57
2018-05-29T06:09:02.692Z,9.50
2018-05-29T06:11:30.407Z,10.73
2018-05-29T06:13:58.031Z,10.63
2018-05-29T06:16:25.716Z,9.97
2018-05-29T06:18:53.339Z,9.83
2018-05-29T06:21:20.946Z,10.80
2018-05-29T06:23:48.607Z,10.30
2018-05-29T06:26:16.280Z,10.40
2018-05-29T06:28:43.940Z,10.23
2018-05-29T06:31:11.559Z,11.37
2018-05-29T06:33:39.195Z,9.40
2018-05-29T06:36:06.810Z,10.07
2018-05-29T06:38:34.475Z,8.63
2018-05-29T06:41:02.082Z,8.90
2018-05-29T06:43:29.850Z,8.90
2018-05-29T06:45:57.566Z,10.33
2018-05-29T06:48:25.199Z,9.57
2018-05-29T06:50:52.819Z,8.90
2018-05-29T06:53:20.550Z,11.27
2018-05-29T06:55:48.171Z,9.70
2018-05-29T06:58:15.884Z,8.80
2018-05-29T07:00:43.498Z,11.17
2018-05-29T07:03:11.136Z,8.83
2018-05-29T07:05:38.762Z,9.60
2018-05-29T07:08:06.399Z,9.43
2018-05-29T07:10:34.085Z,9.23
2018-05-29T07:13:01.746Z,8.40
2018-05-29T07:15:29.419Z,8.33
2018-05-29T07:17:57.080Z,10.00
2018-05-29T07:20:24.701Z,8.70
2018-05-29T07:22:52.397Z,9.17
2018-05-29T07:25:20.058Z,9.10
2018-05-29T07:27:47.728Z,8.80
2018-05-29T07:30:15.335Z,8.63
2018-05-29T07:32:43.050Z,8.93
2018-05-29T07:35:10.816Z,8.67
2018-05-29T07:37:38.583Z,9.07
2018-05-29T07:40:06.223Z,7.90
2018-05-29T07:42:33.846Z,7.57
2018-05-29T07:45:01.491Z,8.30
2018-05-29T07:47:29.107Z,8.50
2018-05-29T07:49:56.752Z,8.70
2018-05-29T07:52:24.462Z,8.50
2018-05-29T07:54:52.119Z,8.53
2018-05-29T07:57:19.741Z,8.43
2018-05-29T07:59:47.401Z,8.83
2018-05-29T08:02:15.013Z,9.07
2018-05-29T08:04:42.756Z,7.63
2018-05-29T08:07:10.419Z,8.97
2018-05-29T08:09:38.054Z,7.90
2018-05-29T08:12:05.671Z,8.13
2018-05-29T08:14:33.303Z,8.30
2018-05-29T08:17:00.910Z,10.40
2018-05-29T08:19:28.550Z,7.90
2018-05-29T08:21:56.158Z,7.90
2018-05-29T08:24:23.791Z,7.33
2018-05-29T08:26:51.414Z,8.40
2018-05-29T08:29:19.060Z,7.30
2018-05-29T08:31:46.743Z,6.50
2018-05-29T08:34:14.398Z,7.40
2018-05-29T08:36:42.053Z,6.73
2018-05-29T08:39:09.689Z,6.10
2018-05-29T08:41:37.399Z,6.73
2018-05-29T08:44:05.078Z,7.37
2018-05-29T08:46:32.711Z,7.00
2018-05-29T08:49:00.365Z,6.90
2018-05-29T08:51:28.136Z,6.30
2018-05-29T08:53:55.752Z,6.87
2018-05-29T08:56:23.387Z,7.43
2018-05-29T08:58:50.990Z,7.43
2018-05-29T09:01:18.623Z,6.47
2018-05-29T09:03:46.230Z,6.70
2018-05-29T09:06:13.920Z,6.20
2018-05-29T09:08:41.690Z,7.20
2018-05-29T09:11:09.331Z,5.93
2018-05-29T09:13:36.943Z,6.90
2018-05-29T09:16:04.660Z,6.47
2018-05-29T09:18:32.328Z,7.00
2018-05-29T09:20:59.967Z,5.93
2018-05-29T09:23:27.647Z,6.20
2018-05-29T09:25:55.321Z,7.57
2018-05-29T09:28:22.940Z,5.77
2018-05-29T09:30:50.588Z,5.10
2018-05-29T09:33:18.195Z,5.83
2018-05-29T09:35:45.863Z,5.43
2018-05-29T09:38:13.530Z,6.00
2018-05-29T09:40:41.178Z,5.87
2018-05-29T09:43:08.785Z,5.50
2018-05-29T09:45:36.409Z,5.50
2018-05-29T09:48:04.033Z,5.00
2018-05-29T09:50:31.826Z,5.20
2018-05-29T09:52:59.452Z,5.40
2018-05-29T09:55:27.092Z,5.23
2018-05-29T09:57:54.824Z,5.60
2018-05-29T10:00:28.211Z,5.40
2018-05-29T10:02:55.827Z,5.50
2018-05-29T10:05:23.451Z,4.20
2018-05-29T10:07:51.054Z,4.73
2018-05-29T10:10:18.690Z,3.90
2018-05-29T10:12:46.327Z,4.60
2018-05-29T10:15:13.948Z,5.20
2018-05-29T10:17:41.642Z,4.37
2018-05-29T10:20:09.307Z,5.17
2018-05-29T10:22:36.938Z,5.27
2018-05-29T10:25:04.555Z,4.80
2018-05-29T10:27:32.191Z,4.87
2018-05-29T10:29:59.858Z,4.40
2018-05-29T10:32:27.514Z,3.80
2018-05-29T10:34:55.175Z,6.13
2018-05-29T10:37:22.812Z,4.27
2018-05-29T10:39:50.430Z,5.07
2018-05-29T10:42:18.062Z,4.10
2018-05-29T10:44:45.678Z,5.27
2018-05-29T10:47:13.312Z,4.80
2018-05-29T10:49:40.918Z,4.70
2018-05-29T10:52:08.610Z,4.57
2018-05-29T10:54:36.211Z,4.10
2018-05-29T10:57:03.843Z,4.63
2018-05-29T10:59:31.454Z,4.97
2018-05-29T11:01:59.111Z,4.40
2018-05-29T11:04:26.831Z,4.73
2018-05-29T11:06:54.483Z,4.80
2018-05-29T11:09:22.242Z,4.67
2018-05-29T11:11:49.903Z,4.37
2018-05-29T11:14:17.514Z,4.67
2018-05-29T11:16:45.239Z,4.10
2018-05-29T11:19:12.842Z,4.60
2018-05-29T11:21:40.476Z,4.40
2018-05-29T11:24:08.096Z,4.70
2018-05-29T11:26:35.739Z,4.33
2018-05-29T11:29:03.439Z,3.63
2018-05-29T11:31:31.052Z,4.50
2018-05-29T11:33:58.766Z,4.10
2018-05-29T11:36:26.366Z,4.07
2018-05-29T11:38:54.099Z,3.60
2018-05-29T11:41:21.709Z,4.50
2018-05-29T11:43:49.347Z,4.30
2018-05-29T11:46:16.963Z,3.50
2018-05-29T11:48:44.590Z,4.20
2018-05-29T11:51:12.298Z,4.10
2018-05-29T11:53:39.961Z,3.97
2018-05-29T11:56:07.722Z,3.30
2018-05-29T11:58:35.387Z,3.60
2018-05-29T12:01:02.999Z,3.77
2018-05-29T12:03:30.713Z,3.90
2018-05-29T12:05:58.331Z,4.40
2018-05-29T12:08:25.957Z,4.33
2018-05-29T12:10:53.594Z,4.77
2018-05-29T12:13:21.235Z,3.40
2018-05-29T12:15:48.852Z,3.67
2018-05-29T12:18:16.487Z,4.20
2018-05-29T12:20:44.103Z,3.67
2018-05-29T12:23:11.811Z,3.70
2018-05-29T12:25:39.424Z,4.03
2018-05-29T12:28:07.050Z,2.67
2018-05-29T12:30:34.690Z,3.67
2018-05-29T12:33:02.362Z,3.60
2018-05-29T12:35:29.975Z,4.03
2018-05-29T12:37:57.687Z,3.63
2018-05-29T12:40:25.361Z,4.40
2018-05-29T12:42:52.975Z,4.33
2018-05-29T12:45:20.616Z,3.90
2018-05-29T12:47:48.235Z,3.37
2018-05-29T12:50:15.882Z,3.97
2018-05-29T12:52:43.496Z,4.43
2018-05-29T12:55:11.132Z,4.33
2018-05-29T12:57:38.737Z,3.70
2018-05-29T13:00:06.532Z,3.57
2018-05-29T13:02:34.148Z,3.53
2018-05-29T13:05:01.860Z,4.10
2018-05-29T13:07:29.491Z,3.50
2018-05-29T13:09:57.142Z,4.10
2018-05-29T13:12:24.746Z,3.87
2018-05-29T13:14:52.383Z,4.53
2018-05-29T13:17:19.994Z,3.87
2018-05-29T13:19:47.624Z,4.00
2018-05-29T13:22:15.291Z,5.07
2018-05-29T13:24:42.935Z,3.60
2018-05-29T13:27:10.740Z,3.20
2018-05-29T13:29:38.376Z,3.70
2018-05-29T13:32:05.986Z,3.43
2018-05-29T13:34:33.711Z,3.93
2018-05-29T13:37:01.324Z,3.30
2018-05-29T13:39:28.949Z,3.20
2018-05-29T13:41:56.590Z,3.60
2018-05-29T13:44:24.224Z,3.00
2018-05-29T13:46:51.838Z,3.57
2018-05-29T13:49:19.674Z,3.40
2018-05-29T13:51:47.347Z,3.27
2018-05-29T13:54:15.008Z,3.27
2018-05-29T13:56:42.660Z,3.20
2018-05-29T13:59:10.326Z,3.33
2018-05-29T14:01:38.398Z,3.10
2018-05-29T14:04:06.011Z,2.70
2018-05-29T14:06:33.646Z,3.23
2018-05-29T14:09:01.254Z,3.30
2018-05-29T14:11:28.886Z,3.10
2018-05-29T14:13:56.606Z,2.47
2018-05-29T14:16:24.264Z,2.90
2018-05-29T14:18:51.929Z,2.50
2018-05-29T14:21:19.603Z,3.30
2018-05-29T14:23:47.211Z,3.10
2018-05-29T14:26:14.914Z,3.30
2018-05-29T14:28:42.576Z,2.70
2018-05-29T14:31:10.213Z,3.37
2018-05-29T14:33:37.814Z,2.57
2018-05-29T14:36:05.439Z,2.27
2018-05-29T14:38:33.154Z,2.67
2018-05-29T14:41:00.787Z,2.83
2018-05-29T14:43:29.167Z,2.87
2018-05-29T14:45:56.798Z,2.60
2018-05-29T14:48:24.500Z,2.90
2018-05-29T14:50:52.145Z,2.87
2018-05-29T14:53:19.813Z,2.97
2018-05-29T14:55:47.481Z,3.60
2018-05-29T14:58:15.082Z,2.67
2018-05-29T15:00:42.706Z,2.90
2018-05-29T15:03:10.319Z,3.10
2018-05-29T15:05:37.955Z,2.60
2018-05-29T15:08:05.571Z,3.70
2018-05-29T15:10:33.208Z,2.40
2018-05-29T15:13:00.811Z,2.90
2018-05-29T15:15:28.414Z,3.37
2018-05-29T15:17:56.048Z,2.33
2018-05-29T15:20:23.703Z,3.27
2018-05-29T15:22:51.350Z,2.30
2018-05-29T15:25:19.014Z,3.20
2018-05-29T15:27:46.651Z,2.97
2018-05-29T15:30:14.269Z,2.20
2018-05-29T15:32:41.910Z,2.50
2018-05-29T15:35:09.562Z,2.63
2018-05-29T15:37:37.741Z,2.53
2018-05-29T15:40:05.346Z,2.60
2018-05-29T15:42:33.067Z,2.30
2018-05-29T15:45:00.673Z,2.63
2018-05-29T15:47:28.300Z,1.97
2018-05-29T15:49:55.910Z,2.17
2018-05-29T15:52:23.543Z,2.40
2018-05-29T15:54:51.163Z,2.50
2018-05-29T15:57:18.790Z,2.53
2018-05-29T15:59:46.494Z,2.30
2018-05-29T16:02:14.163Z,2.67
2018-05-29T16:04:41.776Z,2.70
2018-05-29T16:07:09.415Z,3.00
2018-05-29T16:09:37.038Z,2.37
2018-05-29T16:12:04.707Z,2.47
2018-05-29T16:14:32.367Z,2.77
2018-05-29T16:17:00.010Z,2.80
2018-05-29T16:19:27.618Z,2.60
2018-05-29T16:21:55.251Z,3.17
2018-05-29T16:24:22.916Z,3.00
2018-05-29T16:26:50.679Z,3.00
2018-05-29T16:29:18.294Z,2.87
2018-05-29T16:31:45.902Z,2.10
2018-05-29T16:34:13.539Z,2.20
2018-05-29T16:36:41.218Z,2.30
2018-05-29T16:39:08.887Z,2.57
2018-05-29T16:41:36.503Z,3.10
2018-05-29T16:44:04.208Z,2.87
2018-05-29T16:46:31.880Z,2.80
2018-05-29T16:48:59.545Z,2.43
2018-05-29T16:51:27.145Z,2.67
2018-05-29T16:53:54.864Z,2.20
2018-05-29T16:56:22.529Z,2.60
2018-05-29T16:58:50.177Z,2.10
2018-05-29T17:01:17.788Z,2.60
2018-05-29T17:03:45.422Z,2.20
2018-05-29T17:06:13.048Z,2.53
2018-05-29T17:08:40.682Z,2.60
2018-05-29T17:11:08.297Z,2.57
2018-05-29T17:13:35.952Z,2.40
2018-05-29T17:16:03.628Z,2.40
2018-05-29T17:18:31.263Z,2.10
2018-05-29T17:20:58.940Z,2.67
2018-05-29T17:23:26.598Z,2.53
2018-05-29T17:25:54.207Z,2.43
2018-05-29T17:28:21.839Z,2.60
2018-05-29T17:30:49.455Z,2.10
2018-05-29T17:33:17.142Z,2.07
2018-05-29T17:35:44.806Z,2.30
2018-05-29T17:38:12.487Z,2.20
2018-05-29T17:40:40.111Z,2.20
2018-05-29T17:43:07.727Z,1.87
2018-05-29T17:45:35.456Z,2.93
2018-05-29T17:48:03.076Z,2.30
2018-05-29T17:50:30.736Z,2.57
2018-05-29T17:52:58.354Z,2.40
2018-05-29T17:55:26.003Z,2.67
2018-05-29T17:57:53.610Z,2.90
2018-05-29T18:00:21.331Z,2.20
2018-05-29T18:02:48.947Z,2.50
2018-05-29T18:05:16.650Z,2.50
2018-05-29T18:07:44.253Z,2.37
2018-05-29T18:10:11.891Z,2.40
2018-05-29T18:12:39.499Z,2.80
2018-05-29T18:15:07.151Z,2.97
2018-05-29T18:17:34.771Z,2.80
2018-05-29T18:20:02.428Z,3.47
2018-05-29T18:22:30.040Z,3.87
2018-05-29T18:24:57.679Z,3.23
2018-05-29T18:27:25.308Z,3.10
2018-05-29T18:29:52.934Z,2.80
2018-05-29T18:32:20.560Z,2.80
2018-05-29T18:34:48.192Z,2.90
2018-05-29T18:37:15.811Z,2.37
2018-05-29T18:39:43.509Z,4.87
2018-05-29T18:42:11.171Z,3.20
2018-05-29T18:44:38.868Z,2.77
2018-05-29T18:47:06.495Z,3.43
2018-05-29T18:49:34.122Z,4.27
2018-05-29T18:52:01.773Z,4.50
2018-05-29T18:54:29.491Z,4.43
2018-05-29T18:56:57.105Z,4.90
2018-05-29T18:59:24.819Z,4.63
2018-05-29T19:01:52.461Z,4.17
2018-05-29T19:04:20.131Z,4.77
2018-05-29T19:06:47.796Z,4.27
2018-05-29T19:09:15.416Z,4.67
2018-05-29T19:11:43.046Z,4.40
2018-05-29T19:14:10.650Z,5.27
2018-05-29T19:16:38.356Z,4.67
2018-05-29T19:19:05.972Z,5.70
2018-05-29T19:21:33.671Z,5.70
2018-05-29T19:24:01.287Z,5.63
2018-05-29T19:26:28.946Z,5.27
2018-05-29T19:28:56.615Z,4.63
2018-05-29T19:31:24.221Z,4.33
2018-05-29T19:33:51.838Z,4.33
2018-05-29T19:36:19.471Z,4.97
2018-05-29T19:38:47.112Z,5.67
2018-05-29T19:41:14.738Z,4.90
2018-05-29T19:43:42.356Z,5.97
2018-05-29T19:46:09.991Z,5.17
2018-05-29T19:48:37.640Z,4.23
2018-05-29T19:51:05.278Z,5.07
2018-05-29T19:53:32.894Z,4.80
2018-05-29T19:56:00.626Z,5.20
2018-05-29T19:58:28.297Z,4.73
2018-05-29T20:00:55.942Z,5.70
2018-05-29T20:03:30.183Z,5.93
2018-05-29T20:05:57.842Z,5.07
2018-05-29T20:08:25.463Z,5.30
2018-05-29T20:10:53.160Z,5.53
2018-05-29T20:13:20.781Z,5.97
2018-05-29T20:15:48.413Z,5.37
2018-05-29T20:18:16.139Z,5.70
2018-05-29T20:20:43.819Z,6.33
2018-05-29T20:23:11.456Z,4.70
2018-05-29T20:25:39.140Z,6.87
2018-05-29T20:28:06.780Z,5.90
2018-05-29T20:30:34.394Z,6.00
2018-05-29T20:33:02.022Z,6.03
2018-05-29T20:35:29.639Z,5.20
2018-05-29T20:37:57.343Z,5.67
2018-05-29T20:40:25.004Z,6.20
2018-05-29T20:42:52.657Z,6.10
2018-05-29T20:45:20.272Z,5.93
2018-05-29T20:47:47.912Z,5.67
2018-05-29T20:50:15.542Z,5.60
2018-05-29T20:52:43.223Z,5.00
2018-05-29T20:55:10.876Z,5.43
2018-05-29T20:57:39.096Z,6.07
2018-05-29T21:00:06.706Z,5.60
2018-05-29T21:02:34.375Z,7.53
2018-05-29T21:05:02.032Z,8.00
2018-05-29T21:07:29.662Z,7.60
2018-05-29T21:09:57.354Z,6.43
2018-05-29T21:12:24.986Z,6.20
2018-05-29T21:14:52.598Z,5.20
2018-05-29T21:17:20.239Z,6.83
2018-05-29T21:19:47.908Z,7.00
2018-05-29T21:22:15.617Z,6.83
2018-05-29T21:24:43.190Z,6.57
2018-05-29T21:27:10.830Z,7.50
2018-05-29T21:29:38.451Z,5.80
2018-05-29T21:32:06.054Z,6.17
2018-05-29T21:34:33.695Z,6.63
2018-05-29T21:37:01.307Z,6.20
2018-05-29T21:39:28.953Z,7.40
2018-05-29T21:41:56.567Z,6.60
2018-05-29T21:44:24.226Z,6.90
2018-05-29T21:46:51.834Z,7.30
2018-05-29T21:49:19.537Z,7.77
2018-05-29T21:51:47.202Z,8.03
2018-05-29T21:54:14.836Z,7.43
2018-05-29T21:56:42.451Z,7.23
2018-05-29T21:59:10.079Z,7.30
2018-05-29T22:01:37.686Z,7.37
2018-05-29T22:04:05.411Z,7.53
2018-05-29T22:06:33.027Z,8.10
2018-05-29T22:09:00.738Z,7.47
2018-05-29T22:11:28.407Z,6.73
2018-05-29T22:13:56.068Z,7.60
2018-05-29T22:16:23.733Z,8.00
2018-05-29T22:18:51.360Z,7.77
2018-05-29T22:21:19.001Z,6.70
2018-05-29T22:23:46.630Z,7.20
2018-05-29T22:26:14.239Z,6.80
2018-05-29T22:28:41.871Z,6.50
2018-05-29T22:31:09.599Z,6.83
2018-05-29T22:33:37.230Z,6.30
2018-05-29T22:36:04.847Z,7.37
2018-05-29T22:38:32.486Z,7.73
2018-05-29T22:41:00.147Z,7.80
2018-05-29T22:43:27.797Z,6.07
2018-05-29T22:45:55.466Z,6.90
2018-05-29T22:48:23.070Z,7.17
2018-05-29T22:50:50.703Z,6.63
2018-05-29T22:53:18.317Z,5.60
2018-05-29T22:55:45.951Z,6.33
2018-05-29T22:58:13.558Z,6.40
2018-05-29T23:00:41.199Z,7.03
2018-05-29T23:03:08.908Z,7.30
2018-05-29T23:05:36.558Z,6.20
2018-05-29T23:08:04.184Z,6.03
2018-05-29T23:10:31.814Z,5.93
2018-05-29T23:12:59.414Z,6.57
2018-05-29T23:15:27.046Z,6.60
2018-05-29T23:17:54.671Z,7.13
2018-05-29T23:20:22.302Z,7.50
2018-05-29T23:22:49.910Z,5.83
2018-05-29T23:25:17.655Z,7.10
2018-05-29T23:27:45.315Z,6.23
2018-05-29T23:30:12.974Z,7.00
2018-05-29T23:32:40.639Z,6.87
2018-05-29T23:35:08.303Z,7.37
2018-05-29T23:37:35.962Z,6.77
2018-05-29T23:40:03.600Z,6.67
2018-05-29T23:42:31.211Z,6.70
2018-05-29T23:44:58.847Z,6.40
2018-05-29T23:47:26.515Z,6.40
2018-05-29T23:49:54.156Z,6.60
2018-05-29T23:52:21.768Z,7.47
2018-05-29T23:54:49.495Z,6.00
2018-05-29T23:57:17.106Z,6.60
2018-05-29T23:59:44.724Z,7.17
